sensor_id;sensor_type;location;lat;lon;timestamp;P1;durP1;ratioP1;P2;durP2;ratioP2
68484;SDS011;55472;50.060;21.960;2023-05-29T00:00:31;7.22;;;2.50;;
68484;SDS011;55472;50.060;21.960;2023-05-29T00:03:18;8.15;;;2.65;;
68484;SDS011;55472;50.060;21.960;2023-05-29T00:05:44;10.43;;;3.13;;
68484;SDS011;55472;50.060;21.960;2023-05-29T00:08:11;7.60;;;2.67;;
68484;SDS011;55472;50.060;21.960;2023-05-29T00:10:37;7.60;;;2.78;;
68484;SDS011;55472;50.060;21.960;2023-05-29T00:13:03;9.30;;;3.05;;
68484;SDS011;55472;50.060;21.960;2023-05-29T00:15:29;8.60;;;2.92;;
68484;SDS011;55472;50.060;21.960;2023-05-29T00:17:56;9.77;;;2.97;;
68484;SDS011;55472;50.060;21.960;2023-05-29T00:20:22;7.18;;;2.50;;
68484;SDS011;55472;50.060;21.960;2023-05-29T00:22:48;7.78;;;3.28;;
68484;SDS011;55472;50.060;21.960;2023-05-29T00:25:14;8.80;;;3.00;;
68484;SDS011;55472;50.060;21.960;2023-05-29T00:27:41;6.53;;;2.55;;
68484;SDS011;55472;50.060;21.960;2023-05-29T00:30:07;7.40;;;2.63;;
68484;SDS011;55472;50.060;21.960;2023-05-29T00:32:34;9.20;;;3.20;;
68484;SDS011;55472;50.060;21.960;2023-05-29T00:35:00;8.38;;;2.70;;
68484;SDS011;55472;50.060;21.960;2023-05-29T00:37:26;7.65;;;2.60;;
68484;SDS011;55472;50.060;21.960;2023-05-29T00:39:53;7.82;;;3.10;;
68484;SDS011;55472;50.060;21.960;2023-05-29T00:42:19;5.33;;;2.40;;
68484;SDS011;55472;50.060;21.960;2023-05-29T00:44:45;8.63;;;2.50;;
68484;SDS011;55472;50.060;21.960;2023-05-29T00:47:11;5.25;;;2.20;;
68484;SDS011;55472;50.060;21.960;2023-05-29T00:49:38;10.23;;;2.50;;
68484;SDS011;55472;50.060;21.960;2023-05-29T00:52:04;9.57;;;2.72;;
68484;SDS011;55472;50.060;21.960;2023-05-29T00:54:32;7.33;;;2.70;;
68484;SDS011;55472;50.060;21.960;2023-05-29T00:56:59;6.93;;;2.63;;
68484;SDS011;55472;50.060;21.960;2023-05-29T00:59:29;7.47;;;2.65;;
68484;SDS011;55472;50.060;21.960;2023-05-29T01:01:58;9.50;;;2.90;;
68484;SDS011;55472;50.060;21.960;2023-05-29T01:04:27;7.10;;;2.40;;
68484;SDS011;55472;50.060;21.960;2023-05-29T01:06:54;7.60;;;3.10;;
68484;SDS011;55472;50.060;21.960;2023-05-29T01:09:21;7.60;;;3.00;;
68484;SDS011;55472;50.060;21.960;2023-05-29T01:26:57;7.25;;;2.60;;
68484;SDS011;55472;50.060;21.960;2023-05-29T01:29:23;8.40;;;2.90;;
68484;SDS011;55472;50.060;21.960;2023-05-29T01:31:52;9.05;;;2.67;;
68484;SDS011;55472;50.060;21.960;2023-05-29T01:34:20;6.67;;;2.60;;
68484;SDS011;55472;50.060;21.960;2023-05-29T01:36:46;7.43;;;2.97;;
68484;SDS011;55472;50.060;21.960;2023-05-29T01:39:12;6.03;;;2.67;;
68484;SDS011;55472;50.060;21.960;2023-05-29T01:41:39;7.05;;;2.50;;
68484;SDS011;55472;50.060;21.960;2023-05-29T01:44:07;6.55;;;2.58;;
68484;SDS011;55472;50.060;21.960;2023-05-29T01:46:35;7.03;;;2.53;;
68484;SDS011;55472;50.060;21.960;2023-05-29T01:49:04;7.53;;;2.67;;
68484;SDS011;55472;50.060;21.960;2023-05-29T01:51:30;7.43;;;2.35;;
68484;SDS011;55472;50.060;21.960;2023-05-29T01:53:58;6.30;;;2.25;;
68484;SDS011;55472;50.060;21.960;2023-05-29T01:56:27;7.03;;;2.53;;
68484;SDS011;55472;50.060;21.960;2023-05-29T01:58:55;7.33;;;2.60;;
68484;SDS011;55472;50.060;21.960;2023-05-29T02:01:22;5.80;;;2.58;;
68484;SDS011;55472;50.060;21.960;2023-05-29T02:03:49;8.95;;;2.78;;
68484;SDS011;55472;50.060;21.960;2023-05-29T02:06:19;10.25;;;3.88;;
68484;SDS011;55472;50.060;21.960;2023-05-29T02:08:46;10.80;;;3.95;;
68484;SDS011;55472;50.060;21.960;2023-05-29T02:11:12;9.07;;;3.37;;
68484;SDS011;55472;50.060;21.960;2023-05-29T02:13:39;9.23;;;3.08;;
68484;SDS011;55472;50.060;21.960;2023-05-29T02:16:06;11.32;;;3.45;;
68484;SDS011;55472;50.060;21.960;2023-05-29T02:18:32;9.95;;;3.25;;
68484;SDS011;55472;50.060;21.960;2023-05-29T02:20:59;8.93;;;3.60;;
68484;SDS011;55472;50.060;21.960;2023-05-29T02:23:26;10.87;;;3.67;;
68484;SDS011;55472;50.060;21.960;2023-05-29T02:25:52;8.75;;;3.40;;
68484;SDS011;55472;50.060;21.960;2023-05-29T02:28:18;8.45;;;3.33;;
68484;SDS011;55472;50.060;21.960;2023-05-29T02:30:44;8.38;;;3.13;;
68484;SDS011;55472;50.060;21.960;2023-05-29T02:33:10;8.67;;;2.83;;
68484;SDS011;55472;50.060;21.960;2023-05-29T02:35:37;9.10;;;4.05;;
68484;SDS011;55472;50.060;21.960;2023-05-29T02:38:03;12.65;;;3.60;;
68484;SDS011;55472;50.060;21.960;2023-05-29T02:40:29;11.13;;;3.65;;
68484;SDS011;55472;50.060;21.960;2023-05-29T02:42:55;9.73;;;3.22;;
68484;SDS011;55472;50.060;21.960;2023-05-29T02:45:21;8.80;;;3.30;;
68484;SDS011;55472;50.060;21.960;2023-05-29T02:47:48;10.13;;;3.25;;
68484;SDS011;55472;50.060;21.960;2023-05-29T02:50:14;8.52;;;3.40;;
68484;SDS011;55472;50.060;21.960;2023-05-29T02:52:40;11.70;;;3.97;;
68484;SDS011;55472;50.060;21.960;2023-05-29T02:55:06;8.43;;;3.50;;
68484;SDS011;55472;50.060;21.960;2023-05-29T02:57:33;8.83;;;3.47;;
68484;SDS011;55472;50.060;21.960;2023-05-29T02:59:59;11.02;;;4.13;;
68484;SDS011;55472;50.060;21.960;2023-05-29T03:02:26;11.00;;;4.32;;
68484;SDS011;55472;50.060;21.960;2023-05-29T03:04:52;9.93;;;3.53;;
68484;SDS011;55472;50.060;21.960;2023-05-29T03:07:19;10.77;;;3.30;;
68484;SDS011;55472;50.060;21.960;2023-05-29T03:09:45;7.20;;;3.40;;
68484;SDS011;55472;50.060;21.960;2023-05-29T03:12:11;9.73;;;3.15;;
68484;SDS011;55472;50.060;21.960;2023-05-29T03:14:38;6.80;;;2.85;;
68484;SDS011;55472;50.060;21.960;2023-05-29T03:17:05;6.95;;;2.60;;
68484;SDS011;55472;50.060;21.960;2023-05-29T03:19:32;7.90;;;2.92;;
68484;SDS011;55472;50.060;21.960;2023-05-29T03:21:59;9.93;;;3.37;;
68484;SDS011;55472;50.060;21.960;2023-05-29T03:24:25;8.35;;;3.33;;
68484;SDS011;55472;50.060;21.960;2023-05-29T03:26:51;9.40;;;3.22;;
68484;SDS011;55472;50.060;21.960;2023-05-29T03:29:17;9.52;;;3.55;;
68484;SDS011;55472;50.060;21.960;2023-05-29T03:31:43;7.83;;;3.10;;
68484;SDS011;55472;50.060;21.960;2023-05-29T03:34:09;6.93;;;2.72;;
68484;SDS011;55472;50.060;21.960;2023-05-29T03:36:36;11.57;;;3.35;;
68484;SDS011;55472;50.060;21.960;2023-05-29T03:39:05;8.05;;;2.92;;
68484;SDS011;55472;50.060;21.960;2023-05-29T03:41:32;9.18;;;3.20;;
68484;SDS011;55472;50.060;21.960;2023-05-29T03:43:58;6.80;;;3.20;;
68484;SDS011;55472;50.060;21.960;2023-05-29T03:46:24;8.25;;;3.03;;
68484;SDS011;55472;50.060;21.960;2023-05-29T03:48:50;7.70;;;3.35;;
68484;SDS011;55472;50.060;21.960;2023-05-29T03:51:16;7.35;;;3.03;;
68484;SDS011;55472;50.060;21.960;2023-05-29T03:53:42;7.90;;;3.15;;
68484;SDS011;55472;50.060;21.960;2023-05-29T03:56:08;9.00;;;3.40;;
68484;SDS011;55472;50.060;21.960;2023-05-29T03:58:34;10.10;;;3.33;;
68484;SDS011;55472;50.060;21.960;2023-05-29T04:01:02;9.20;;;3.78;;
68484;SDS011;55472;50.060;21.960;2023-05-29T04:03:29;10.70;;;3.85;;
68484;SDS011;55472;50.060;21.960;2023-05-29T04:05:56;9.02;;;3.92;;
68484;SDS011;55472;50.060;21.960;2023-05-29T04:08:22;10.50;;;3.50;;
68484;SDS011;55472;50.060;21.960;2023-05-29T04:10:48;9.57;;;4.22;;
68484;SDS011;55472;50.060;21.960;2023-05-29T04:13:19;10.70;;;3.95;;
68484;SDS011;55472;50.060;21.960;2023-05-29T04:15:46;8.57;;;3.80;;
68484;SDS011;55472;50.060;21.960;2023-05-29T04:18:12;9.45;;;4.40;;
68484;SDS011;55472;50.060;21.960;2023-05-29T04:20:39;9.47;;;4.27;;
68484;SDS011;55472;50.060;21.960;2023-05-29T04:23:06;12.25;;;4.18;;
68484;SDS011;55472;50.060;21.960;2023-05-29T04:25:32;12.48;;;5.00;;
68484;SDS011;55472;50.060;21.960;2023-05-29T04:27:59;9.85;;;4.70;;
68484;SDS011;55472;50.060;21.960;2023-05-29T04:30:27;9.20;;;4.20;;
68484;SDS011;55472;50.060;21.960;2023-05-29T04:32:54;9.23;;;3.57;;
68484;SDS011;55472;50.060;21.960;2023-05-29T04:35:20;8.73;;;3.95;;
68484;SDS011;55472;50.060;21.960;2023-05-29T04:37:47;10.07;;;3.72;;
68484;SDS011;55472;50.060;21.960;2023-05-29T04:40:13;8.13;;;3.83;;
68484;SDS011;55472;50.060;21.960;2023-05-29T04:42:42;8.00;;;3.83;;
68484;SDS011;55472;50.060;21.960;2023-05-29T04:45:11;9.97;;;3.80;;
68484;SDS011;55472;50.060;21.960;2023-05-29T04:47:37;8.25;;;3.63;;
68484;SDS011;55472;50.060;21.960;2023-05-29T04:50:10;8.88;;;4.30;;
68484;SDS011;55472;50.060;21.960;2023-05-29T04:52:39;12.15;;;4.07;;
68484;SDS011;55472;50.060;21.960;2023-05-29T04:55:05;8.93;;;3.80;;
68484;SDS011;55472;50.060;21.960;2023-05-29T04:57:32;10.77;;;3.70;;
68484;SDS011;55472;50.060;21.960;2023-05-29T04:59:58;8.48;;;3.80;;
68484;SDS011;55472;50.060;21.960;2023-05-29T05:02:24;7.53;;;3.90;;
68484;SDS011;55472;50.060;21.960;2023-05-29T05:04:50;10.00;;;4.10;;
68484;SDS011;55472;50.060;21.960;2023-05-29T05:07:16;13.23;;;3.90;;
68484;SDS011;55472;50.060;21.960;2023-05-29T05:09:42;9.87;;;4.10;;
68484;SDS011;55472;50.060;21.960;2023-05-29T05:12:08;8.05;;;3.47;;
68484;SDS011;55472;50.060;21.960;2023-05-29T05:14:35;11.80;;;3.85;;
68484;SDS011;55472;50.060;21.960;2023-05-29T05:17:01;10.32;;;3.60;;
68484;SDS011;55472;50.060;21.960;2023-05-29T05:19:27;13.98;;;4.00;;
68484;SDS011;55472;50.060;21.960;2023-05-29T05:21:53;10.30;;;3.67;;
68484;SDS011;55472;50.060;21.960;2023-05-29T05:24:22;6.95;;;3.42;;
68484;SDS011;55472;50.060;21.960;2023-05-29T05:26:47;8.43;;;3.70;;
68484;SDS011;55472;50.060;21.960;2023-05-29T05:29:14;7.95;;;3.35;;
68484;SDS011;55472;50.060;21.960;2023-05-29T05:31:40;11.40;;;3.40;;
68484;SDS011;55472;50.060;21.960;2023-05-29T05:34:06;8.27;;;3.30;;
68484;SDS011;55472;50.060;21.960;2023-05-29T05:36:32;12.32;;;4.00;;
68484;SDS011;55472;50.060;21.960;2023-05-29T05:38:58;8.10;;;3.55;;
68484;SDS011;55472;50.060;21.960;2023-05-29T05:41:25;10.23;;;3.47;;
68484;SDS011;55472;50.060;21.960;2023-05-29T05:43:52;11.23;;;3.83;;
68484;SDS011;55472;50.060;21.960;2023-05-29T05:46:18;9.85;;;3.60;;
68484;SDS011;55472;50.060;21.960;2023-05-29T05:48:44;8.15;;;3.35;;
68484;SDS011;55472;50.060;21.960;2023-05-29T05:51:10;10.73;;;3.78;;
68484;SDS011;55472;50.060;21.960;2023-05-29T05:53:37;10.98;;;3.67;;
68484;SDS011;55472;50.060;21.960;2023-05-29T05:56:04;10.03;;;3.60;;
68484;SDS011;55472;50.060;21.960;2023-05-29T05:58:31;7.45;;;3.80;;
68484;SDS011;55472;50.060;21.960;2023-05-29T06:00:57;7.97;;;3.85;;
68484;SDS011;55472;50.060;21.960;2023-05-29T06:03:23;8.65;;;3.15;;
68484;SDS011;55472;50.060;21.960;2023-05-29T06:05:49;10.48;;;3.30;;
68484;SDS011;55472;50.060;21.960;2023-05-29T06:08:17;7.40;;;2.53;;
68484;SDS011;55472;50.060;21.960;2023-05-29T06:10:43;8.70;;;3.30;;
68484;SDS011;55472;50.060;21.960;2023-05-29T06:13:09;8.40;;;3.15;;
68484;SDS011;55472;50.060;21.960;2023-05-29T06:15:35;14.00;;;3.10;;
68484;SDS011;55472;50.060;21.960;2023-05-29T06:18:01;7.53;;;2.83;;
68484;SDS011;55472;50.060;21.960;2023-05-29T06:20:28;9.63;;;3.47;;
68484;SDS011;55472;50.060;21.960;2023-05-29T06:22:55;8.75;;;3.08;;
68484;SDS011;55472;50.060;21.960;2023-05-29T06:25:21;13.80;;;3.22;;
68484;SDS011;55472;50.060;21.960;2023-05-29T06:27:47;9.73;;;2.53;;
68484;SDS011;55472;50.060;21.960;2023-05-29T06:30:22;6.80;;;2.80;;
68484;SDS011;55472;50.060;21.960;2023-05-29T06:32:51;6.88;;;2.47;;
68484;SDS011;55472;50.060;21.960;2023-05-29T06:35:17;10.70;;;2.97;;
68484;SDS011;55472;50.060;21.960;2023-05-29T06:37:44;6.75;;;3.20;;
68484;SDS011;55472;50.060;21.960;2023-05-29T06:40:14;9.45;;;3.20;;
68484;SDS011;55472;50.060;21.960;2023-05-29T06:42:43;7.77;;;2.77;;
68484;SDS011;55472;50.060;21.960;2023-05-29T06:45:12;8.57;;;3.10;;
68484;SDS011;55472;50.060;21.960;2023-05-29T06:47:44;9.38;;;3.40;;
68484;SDS011;55472;50.060;21.960;2023-05-29T06:50:10;10.23;;;3.05;;
68484;SDS011;55472;50.060;21.960;2023-05-29T06:52:36;10.32;;;2.88;;
68484;SDS011;55472;50.060;21.960;2023-05-29T06:55:02;8.80;;;2.90;;
68484;SDS011;55472;50.060;21.960;2023-05-29T06:57:29;7.45;;;2.70;;
68484;SDS011;55472;50.060;21.960;2023-05-29T06:59:55;7.38;;;3.20;;
68484;SDS011;55472;50.060;21.960;2023-05-29T07:02:22;8.60;;;2.60;;
68484;SDS011;55472;50.060;21.960;2023-05-29T07:04:48;9.15;;;3.35;;
68484;SDS011;55472;50.060;21.960;2023-05-29T07:07:14;9.30;;;3.10;;
68484;SDS011;55472;50.060;21.960;2023-05-29T07:09:40;8.82;;;2.70;;
68484;SDS011;55472;50.060;21.960;2023-05-29T07:12:06;8.98;;;2.78;;
68484;SDS011;55472;50.060;21.960;2023-05-29T07:14:32;7.38;;;2.92;;
68484;SDS011;55472;50.060;21.960;2023-05-29T07:16:59;7.80;;;2.50;;
68484;SDS011;55472;50.060;21.960;2023-05-29T07:19:25;8.17;;;2.70;;
68484;SDS011;55472;50.060;21.960;2023-05-29T07:21:51;7.93;;;2.58;;
68484;SDS011;55472;50.060;21.960;2023-05-29T07:24:18;8.40;;;2.78;;
68484;SDS011;55472;50.060;21.960;2023-05-29T07:26:44;9.93;;;2.95;;
68484;SDS011;55472;50.060;21.960;2023-05-29T07:29:10;7.70;;;2.90;;
68484;SDS011;55472;50.060;21.960;2023-05-29T07:31:37;8.90;;;2.90;;
68484;SDS011;55472;50.060;21.960;2023-05-29T07:34:05;8.75;;;2.67;;
68484;SDS011;55472;50.060;21.960;2023-05-29T07:36:32;8.57;;;2.70;;
68484;SDS011;55472;50.060;21.960;2023-05-29T07:38:58;8.02;;;2.45;;
68484;SDS011;55472;50.060;21.960;2023-05-29T07:41:26;10.02;;;2.60;;
68484;SDS011;55472;50.060;21.960;2023-05-29T07:43:52;10.03;;;2.70;;
68484;SDS011;55472;50.060;21.960;2023-05-29T07:46:18;6.10;;;2.50;;
68484;SDS011;55472;50.060;21.960;2023-05-29T07:48:45;7.40;;;2.50;;
68484;SDS011;55472;50.060;21.960;2023-05-29T07:51:13;11.38;;;2.47;;
68484;SDS011;55472;50.060;21.960;2023-05-29T07:53:40;10.23;;;2.80;;
68484;SDS011;55472;50.060;21.960;2023-05-29T07:56:06;7.83;;;2.80;;
68484;SDS011;55472;50.060;21.960;2023-05-29T07:58:32;9.02;;;2.83;;
68484;SDS011;55472;50.060;21.960;2023-05-29T08:00:58;10.98;;;2.70;;
68484;SDS011;55472;50.060;21.960;2023-05-29T08:03:24;11.45;;;2.83;;
68484;SDS011;55472;50.060;21.960;2023-05-29T08:05:51;9.85;;;2.50;;
68484;SDS011;55472;50.060;21.960;2023-05-29T08:08:17;11.13;;;2.73;;
68484;SDS011;55472;50.060;21.960;2023-05-29T08:10:43;7.40;;;2.42;;
68484;SDS011;55472;50.060;21.960;2023-05-29T08:13:10;9.27;;;2.38;;
68484;SDS011;55472;50.060;21.960;2023-05-29T08:15:36;8.90;;;2.50;;
68484;SDS011;55472;50.060;21.960;2023-05-29T08:18:02;10.18;;;2.22;;
68484;SDS011;55472;50.060;21.960;2023-05-29T08:20:29;10.70;;;2.43;;
68484;SDS011;55472;50.060;21.960;2023-05-29T08:22:55;8.82;;;2.50;;
68484;SDS011;55472;50.060;21.960;2023-05-29T08:25:21;9.00;;;2.60;;
68484;SDS011;55472;50.060;21.960;2023-05-29T08:27:47;7.03;;;2.15;;
68484;SDS011;55472;50.060;21.960;2023-05-29T08:30:13;8.40;;;2.47;;
68484;SDS011;55472;50.060;21.960;2023-05-29T08:32:39;10.17;;;2.30;;
68484;SDS011;55472;50.060;21.960;2023-05-29T08:35:06;6.97;;;2.15;;
68484;SDS011;55472;50.060;21.960;2023-05-29T08:37:32;9.10;;;2.17;;
68484;SDS011;55472;50.060;21.960;2023-05-29T08:39:59;6.15;;;2.10;;
68484;SDS011;55472;50.060;21.960;2023-05-29T08:42:26;8.88;;;2.40;;
68484;SDS011;55472;50.060;21.960;2023-05-29T08:45:00;8.53;;;2.23;;
68484;SDS011;55472;50.060;21.960;2023-05-29T08:47:31;7.07;;;2.33;;
68484;SDS011;55472;50.060;21.960;2023-05-29T08:49:59;8.23;;;2.40;;
68484;SDS011;55472;50.060;21.960;2023-05-29T08:52:27;9.85;;;2.38;;
68484;SDS011;55472;50.060;21.960;2023-05-29T08:55:01;9.43;;;2.38;;
68484;SDS011;55472;50.060;21.960;2023-05-29T08:57:28;9.17;;;2.37;;
68484;SDS011;55472;50.060;21.960;2023-05-29T08:59:55;8.00;;;2.40;;
68484;SDS011;55472;50.060;21.960;2023-05-29T09:02:22;7.65;;;2.17;;
68484;SDS011;55472;50.060;21.960;2023-05-29T09:04:49;6.45;;;2.30;;
68484;SDS011;55472;50.060;21.960;2023-05-29T09:07:17;9.63;;;2.70;;
68484;SDS011;55472;50.060;21.960;2023-05-29T09:09:45;7.23;;;2.27;;
68484;SDS011;55472;50.060;21.960;2023-05-29T09:12:11;9.40;;;2.40;;
68484;SDS011;55472;50.060;21.960;2023-05-29T09:14:39;11.90;;;2.95;;
68484;SDS011;55472;50.060;21.960;2023-05-29T09:17:10;7.50;;;2.50;;
68484;SDS011;55472;50.060;21.960;2023-05-29T09:19:37;9.05;;;2.42;;
68484;SDS011;55472;50.060;21.960;2023-05-29T09:22:09;7.13;;;2.30;;
68484;SDS011;55472;50.060;21.960;2023-05-29T09:24:40;9.32;;;2.30;;
68484;SDS011;55472;50.060;21.960;2023-05-29T09:27:09;11.88;;;2.60;;
68484;SDS011;55472;50.060;21.960;2023-05-29T09:29:38;10.10;;;2.50;;
68484;SDS011;55472;50.060;21.960;2023-05-29T09:32:07;8.75;;;2.55;;
68484;SDS011;55472;50.060;21.960;2023-05-29T09:34:34;10.37;;;2.53;;
68484;SDS011;55472;50.060;21.960;2023-05-29T09:37:02;8.20;;;2.58;;
68484;SDS011;55472;50.060;21.960;2023-05-29T09:39:46;9.27;;;2.70;;
68484;SDS011;55472;50.060;21.960;2023-05-29T09:42:14;7.63;;;2.90;;
68484;SDS011;55472;50.060;21.960;2023-05-29T09:44:42;11.32;;;2.92;;
68484;SDS011;55472;50.060;21.960;2023-05-29T09:47:17;7.37;;;2.70;;
68484;SDS011;55472;50.060;21.960;2023-05-29T09:49:45;6.75;;;2.85;;
68484;SDS011;55472;50.060;21.960;2023-05-29T09:52:12;7.22;;;2.67;;
68484;SDS011;55472;50.060;21.960;2023-05-29T09:54:41;15.02;;;3.25;;
68484;SDS011;55472;50.060;21.960;2023-05-29T09:57:12;7.38;;;2.95;;
68484;SDS011;55472;50.060;21.960;2023-05-29T09:59:45;8.33;;;2.80;;
68484;SDS011;55472;50.060;21.960;2023-05-29T10:02:16;12.00;;;3.00;;
68484;SDS011;55472;50.060;21.960;2023-05-29T10:04:46;8.90;;;3.40;;
68484;SDS011;55472;50.060;21.960;2023-05-29T10:07:25;14.13;;;3.13;;
68484;SDS011;55472;50.060;21.960;2023-05-29T10:10:00;9.13;;;3.08;;
68484;SDS011;55472;50.060;21.960;2023-05-29T10:12:37;8.67;;;2.93;;
68484;SDS011;55472;50.060;21.960;2023-05-29T10:15:06;8.57;;;2.70;;
68484;SDS011;55472;50.060;21.960;2023-05-29T10:17:38;13.18;;;2.90;;
68484;SDS011;55472;50.060;21.960;2023-05-29T10:20:33;8.45;;;3.63;;
68484;SDS011;55472;50.060;21.960;2023-05-29T10:23:01;8.30;;;3.47;;
68484;SDS011;55472;50.060;21.960;2023-05-29T10:25:29;6.77;;;3.50;;
68484;SDS011;55472;50.060;21.960;2023-05-29T10:27:58;6.53;;;3.50;;
68484;SDS011;55472;50.060;21.960;2023-05-29T10:30:39;9.77;;;3.75;;
68484;SDS011;55472;50.060;21.960;2023-05-29T10:36:13;10.90;;;3.92;;
68484;SDS011;55472;50.060;21.960;2023-05-29T10:38:44;9.23;;;3.83;;
68484;SDS011;55472;50.060;21.960;2023-05-29T10:43:59;17.48;;;5.80;;
68484;SDS011;55472;50.060;21.960;2023-05-29T10:49:18;8.23;;;3.50;;
68484;SDS011;55472;50.060;21.960;2023-05-29T10:51:46;6.80;;;3.10;;
68484;SDS011;55472;50.060;21.960;2023-05-29T10:54:13;9.23;;;3.60;;
68484;SDS011;55472;50.060;21.960;2023-05-29T10:56:43;10.68;;;3.33;;
68484;SDS011;55472;50.060;21.960;2023-05-29T10:59:18;11.63;;;3.70;;
68484;SDS011;55472;50.060;21.960;2023-05-29T11:01:44;9.45;;;3.95;;
68484;SDS011;55472;50.060;21.960;2023-05-29T11:06:46;9.57;;;3.80;;
68484;SDS011;55472;50.060;21.960;2023-05-29T11:12:13;6.80;;;3.28;;
68484;SDS011;55472;50.060;21.960;2023-05-29T11:14:54;9.77;;;3.70;;
68484;SDS011;55472;50.060;21.960;2023-05-29T11:17:29;11.23;;;3.80;;
68484;SDS011;55472;50.060;21.960;2023-05-29T11:22:40;9.88;;;3.75;;
68484;SDS011;55472;50.060;21.960;2023-05-29T11:25:15;10.80;;;3.88;;
68484;SDS011;55472;50.060;21.960;2023-05-29T11:27:44;8.55;;;3.53;;
68484;SDS011;55472;50.060;21.960;2023-05-29T11:30:11;6.27;;;3.40;;
68484;SDS011;55472;50.060;21.960;2023-05-29T11:32:38;8.27;;;3.60;;
68484;SDS011;55472;50.060;21.960;2023-05-29T11:35:09;10.35;;;3.60;;
68484;SDS011;55472;50.060;21.960;2023-05-29T11:37:37;16.33;;;3.13;;
68484;SDS011;55472;50.060;21.960;2023-05-29T11:40:05;7.70;;;3.30;;
68484;SDS011;55472;50.060;21.960;2023-05-29T11:42:35;10.03;;;3.07;;
68484;SDS011;55472;50.060;21.960;2023-05-29T11:45:10;7.72;;;3.53;;
68484;SDS011;55472;50.060;21.960;2023-05-29T11:50:38;8.50;;;3.03;;
68484;SDS011;55472;50.060;21.960;2023-05-29T11:53:05;8.23;;;3.42;;
68484;SDS011;55472;50.060;21.960;2023-05-29T11:55:35;8.10;;;3.10;;
68484;SDS011;55472;50.060;21.960;2023-05-29T11:58:05;7.15;;;3.45;;
68484;SDS011;55472;50.060;21.960;2023-05-29T12:00:35;9.88;;;3.38;;
68484;SDS011;55472;50.060;21.960;2023-05-29T12:03:04;7.07;;;3.20;;
68484;SDS011;55472;50.060;21.960;2023-05-29T12:05:33;9.18;;;3.45;;
68484;SDS011;55472;50.060;21.960;2023-05-29T12:08:21;10.17;;;3.90;;
68484;SDS011;55472;50.060;21.960;2023-05-29T12:10:49;8.02;;;3.28;;
68484;SDS011;55472;50.060;21.960;2023-05-29T12:13:20;8.88;;;3.20;;
68484;SDS011;55472;50.060;21.960;2023-05-29T12:15:47;7.10;;;3.25;;
68484;SDS011;55472;50.060;21.960;2023-05-29T12:18:16;7.10;;;3.30;;
68484;SDS011;55472;50.060;21.960;2023-05-29T12:20:42;8.23;;;3.20;;
68484;SDS011;55472;50.060;21.960;2023-05-29T12:23:08;7.70;;;3.15;;
68484;SDS011;55472;50.060;21.960;2023-05-29T12:25:37;9.50;;;3.22;;
68484;SDS011;55472;50.060;21.960;2023-05-29T12:28:04;6.80;;;2.95;;
68484;SDS011;55472;50.060;21.960;2023-05-29T12:30:30;7.85;;;3.40;;
68484;SDS011;55472;50.060;21.960;2023-05-29T12:32:57;10.57;;;3.07;;
68484;SDS011;55472;50.060;21.960;2023-05-29T12:35:25;8.55;;;2.92;;
68484;SDS011;55472;50.060;21.960;2023-05-29T12:40:25;7.13;;;3.30;;
68484;SDS011;55472;50.060;21.960;2023-05-29T12:42:57;10.50;;;3.15;;
68484;SDS011;55472;50.060;21.960;2023-05-29T12:45:29;9.30;;;3.03;;
68484;SDS011;55472;50.060;21.960;2023-05-29T12:47:57;10.32;;;3.08;;
68484;SDS011;55472;50.060;21.960;2023-05-29T12:50:29;7.60;;;3.78;;
68484;SDS011;55472;50.060;21.960;2023-05-29T12:53:01;7.32;;;3.45;;
68484;SDS011;55472;50.060;21.960;2023-05-29T12:55:36;9.35;;;3.30;;
68484;SDS011;55472;50.060;21.960;2023-05-29T12:58:05;7.47;;;3.10;;
68484;SDS011;55472;50.060;21.960;2023-05-29T13:00:36;10.48;;;3.33;;
68484;SDS011;55472;50.060;21.960;2023-05-29T13:03:05;12.95;;;3.67;;
68484;SDS011;55472;50.060;21.960;2023-05-29T13:05:32;10.43;;;3.25;;
68484;SDS011;55472;50.060;21.960;2023-05-29T13:07:59;12.52;;;3.33;;
68484;SDS011;55472;50.060;21.960;2023-05-29T13:10:26;8.70;;;3.17;;
68484;SDS011;55472;50.060;21.960;2023-05-29T13:12:54;8.68;;;3.67;;
68484;SDS011;55472;50.060;21.960;2023-05-29T13:15:21;11.35;;;3.42;;
68484;SDS011;55472;50.060;21.960;2023-05-29T13:17:48;8.75;;;3.42;;
68484;SDS011;55472;50.060;21.960;2023-05-29T13:20:14;11.77;;;3.30;;
68484;SDS011;55472;50.060;21.960;2023-05-29T13:22:42;7.50;;;3.30;;
68484;SDS011;55472;50.060;21.960;2023-05-29T13:25:12;8.68;;;3.47;;
68484;SDS011;55472;50.060;21.960;2023-05-29T13:27:41;7.82;;;3.50;;
68484;SDS011;55472;50.060;21.960;2023-05-29T13:30:12;9.27;;;3.60;;
68484;SDS011;55472;50.060;21.960;2023-05-29T13:32:40;5.65;;;3.13;;
68484;SDS011;55472;50.060;21.960;2023-05-29T13:35:07;6.57;;;3.33;;
68484;SDS011;55472;50.060;21.960;2023-05-29T13:37:35;8.57;;;3.50;;
68484;SDS011;55472;50.060;21.960;2023-05-29T13:40:02;6.45;;;3.30;;
68484;SDS011;55472;50.060;21.960;2023-05-29T13:42:30;10.18;;;3.53;;
68484;SDS011;55472;50.060;21.960;2023-05-29T13:44:56;10.32;;;3.60;;
68484;SDS011;55472;50.060;21.960;2023-05-29T13:47:23;7.57;;;3.20;;
68484;SDS011;55472;50.060;21.960;2023-05-29T13:49:49;10.25;;;3.42;;
68484;SDS011;55472;50.060;21.960;2023-05-29T13:52:16;7.15;;;3.30;;
68484;SDS011;55472;50.060;21.960;2023-05-29T13:54:42;7.47;;;3.35;;
68484;SDS011;55472;50.060;21.960;2023-05-29T13:57:08;8.30;;;3.33;;
68484;SDS011;55472;50.060;21.960;2023-05-29T13:59:35;10.00;;;3.28;;
68484;SDS011;55472;50.060;21.960;2023-05-29T14:02:01;6.82;;;3.38;;
68484;SDS011;55472;50.060;21.960;2023-05-29T14:04:29;12.55;;;3.50;;
68484;SDS011;55472;50.060;21.960;2023-05-29T14:06:56;6.88;;;3.17;;
68484;SDS011;55472;50.060;21.960;2023-05-29T14:09:22;10.47;;;3.40;;
68484;SDS011;55472;50.060;21.960;2023-05-29T14:11:58;11.18;;;3.50;;
68484;SDS011;55472;50.060;21.960;2023-05-29T14:14:25;9.43;;;3.55;;
68484;SDS011;55472;50.060;21.960;2023-05-29T14:16:52;6.03;;;2.97;;
68484;SDS011;55472;50.060;21.960;2023-05-29T14:19:20;8.05;;;3.40;;
68484;SDS011;55472;50.060;21.960;2023-05-29T14:21:50;9.30;;;3.10;;
68484;SDS011;55472;50.060;21.960;2023-05-29T14:24:16;8.98;;;3.20;;
68484;SDS011;55472;50.060;21.960;2023-05-29T14:26:43;6.28;;;3.25;;
68484;SDS011;55472;50.060;21.960;2023-05-29T14:29:12;7.45;;;3.22;;
68484;SDS011;55472;50.060;21.960;2023-05-29T14:31:40;8.52;;;3.85;;
68484;SDS011;55472;50.060;21.960;2023-05-29T14:34:07;9.87;;;3.50;;
68484;SDS011;55472;50.060;21.960;2023-05-29T14:36:34;8.48;;;3.75;;
68484;SDS011;55472;50.060;21.960;2023-05-29T14:39:01;10.63;;;3.80;;
68484;SDS011;55472;50.060;21.960;2023-05-29T14:41:28;8.90;;;3.05;;
68484;SDS011;55472;50.060;21.960;2023-05-29T14:43:54;6.18;;;3.20;;
68484;SDS011;55472;50.060;21.960;2023-05-29T14:46:24;11.37;;;3.70;;
68484;SDS011;55472;50.060;21.960;2023-05-29T14:48:52;10.60;;;3.40;;
68484;SDS011;55472;50.060;21.960;2023-05-29T14:51:19;9.98;;;3.70;;
68484;SDS011;55472;50.060;21.960;2023-05-29T14:53:46;10.82;;;3.40;;
68484;SDS011;55472;50.060;21.960;2023-05-29T14:56:12;9.38;;;3.50;;
68484;SDS011;55472;50.060;21.960;2023-05-29T14:58:38;9.77;;;4.03;;
68484;SDS011;55472;50.060;21.960;2023-05-29T15:01:06;7.72;;;3.47;;
68484;SDS011;55472;50.060;21.960;2023-05-29T15:03:33;7.30;;;3.45;;
68484;SDS011;55472;50.060;21.960;2023-05-29T15:06:01;9.00;;;3.42;;
68484;SDS011;55472;50.060;21.960;2023-05-29T15:08:29;7.97;;;3.60;;
68484;SDS011;55472;50.060;21.960;2023-05-29T15:11:00;10.43;;;3.50;;